Time;durP1;ratioP1;P1;durP2;ratioP2;P2;SDS_P1;SDS_P2;PMS_P1;PMS_P2;Temp;Humidity;BMP_temperature;BMP_pressure;BME280_temperature;BME280_humidity;BME280_pressure;Samples;Min_cycle;Max_cycle;Signal;HPM_P1;HPM_P2
2022/08/18 00:02:24;;;;;;;5.00;4.60;;;;;;;;;;4972480;28;20520;-83
2022/08/18 00:04:50;;;;;;;7.60;4.00;;;;;;;;;;4972519;28;20442;-84
2022/08/18 00:07:18;;;;;;;4.47;4.37;;;;;;;;;;4972900;28;20442;-80
2022/08/18 00:09:45;;;;;;;5.30;4.90;;;;;;;;;;4973155;28;20462;-83
2022/08/18 00:12:31;;;;;;;5.13;4.77;;;;;;;;;;4973093;28;20938;-77
2022/08/18 00:15:00;;;;;;;4.23;3.93;;;;;;;;;;4972687;28;20534;-79
2022/08/18 00:17:27;;;;;;;4.80;4.50;;;;;;;;;;4971752;28;20437;-82
2022/08/18 00:19:53;;;;;;;3.60;3.50;;;;;;;;;;4972585;28;20440;-78
2022/08/18 00:22:19;;;;;;;4.30;4.00;;;;;;;;;;4972928;28;20516;-84
2022/08/18 00:24:47;;;;;;;3.97;3.77;;;;;;;;;;4972657;28;20525;-82
2022/08/18 00:27:13;;;;;;;4.00;3.80;;;;;;;;;;4972735;28;20457;-82
2022/08/18 00:29:39;;;;;;;6.67;3.70;;;;;;;;;;4972076;28;20481;-84
2022/08/18 00:32:12;;;;;;;3.50;3.20;;;;;;;;;;4972015;28;20433;-81
2022/08/18 00:34:38;;;;;;;2.90;2.90;;;;;;;;;;4972412;28;20194;-84
2022/08/18 00:37:04;;;;;;;4.13;3.83;;;;;;;;;;4972717;28;20437;-81
2022/08/18 00:39:32;;;;;;;3.60;3.50;;;;;;;;;;4972456;28;20437;-81
2022/08/18 00:41:58;;;;;;;2.90;2.80;;;;;;;;;;4971700;28;20943;-84
2022/08/18 00:44:24;;;;;;;3.87;3.47;;;;;;;;;;4971335;28;20449;-83
2022/08/18 00:46:51;;;;;;;3.50;3.50;;;;;;;;;;4972549;28;20911;-76
2022/08/18 00:49:17;;;;;;;6.90;3.87;;;;;;;;;;4972083;28;20897;-81
2022/08/18 00:51:46;;;;;;;3.40;3.30;;;;;;;;;;4970624;28;20417;-85
2022/08/18 00:54:14;;;;;;;3.40;3.20;;;;;;;;;;4971136;28;20446;-84
2022/08/18 00:56:44;;;;;;;3.30;2.90;;;;;;;;;;4971719;28;20426;-80
2022/08/18 00:59:25;;;;;;;4.00;3.47;;;;;;;;;;4970947;28;21227;-81
2022/08/18 01:01:54;;;;;;;2.90;2.80;;;;;;;;;;4971421;28;20445;-84
2022/08/18 01:04:23;;;;;;;3.37;3.27;;;;;;;;;;4971174;28;20441;-77
2022/08/18 01:07:12;;;;;;;2.30;2.30;;;;;;;;;;4971516;28;20470;-78
2022/08/18 01:09:38;;;;;;;2.80;2.80;;;;;;;;;;4970038;28;20862;-82
2022/08/18 01:12:07;;;;;;;3.60;3.30;;;;;;;;;;4971521;28;20460;-80
2022/08/18 01:14:33;;;;;;;4.03;3.73;;;;;;;;;;4969319;28;20418;-80
2022/08/18 01:22:35;;;;;;;2.90;2.80;;;;;;;;;;4971335;28;20429;-82
2022/08/18 01:27:46;;;;;;;5.80;2.73;;;;;;;;;;4970740;28;20535;-78
2022/08/18 01:30:15;;;;;;;4.20;3.90;;;;;;;;;;4971333;28;20434;-81
2022/08/18 01:32:44;;;;;;;5.43;3.63;;;;;;;;;;4970851;28;20497;-82
2022/08/18 01:35:11;;;;;;;3.40;3.20;;;;;;;;;;4971264;28;20425;-82
2022/08/18 01:37:37;;;;;;;3.60;3.43;;;;;;;;;;4970490;28;20445;-84
2022/08/18 01:40:05;;;;;;;3.33;3.23;;;;;;;;;;4971018;28;20438;-84
2022/08/18 01:42:32;;;;;;;3.87;3.67;;;;;;;;;;4970165;28;20950;-85
2022/08/18 01:44:58;;;;;;;3.93;3.50;;;;;;;;;;4969875;28;20426;-82
2022/08/18 01:47:24;;;;;;;4.00;3.60;;;;;;;;;;4971242;28;20809;-82
2022/08/18 01:49:52;;;;;;;3.73;3.63;;;;;;;;;;4971597;28;20222;-82
2022/08/18 01:52:19;;;;;;;3.50;3.40;;;;;;;;;;4970833;28;20513;-80
2022/08/18 01:54:46;;;;;;;6.93;3.90;;;;;;;;;;4970372;28;20604;-81
2022/08/18 01:57:13;;;;;;;4.17;3.97;;;;;;;;;;4970192;28;20538;-78
2022/08/18 01:59:39;;;;;;;4.33;4.13;;;;;;;;;;4970664;28;21664;-79
2022/08/18 02:02:06;;;;;;;4.47;4.07;;;;;;;;;;4970400;28;20937;-79
2022/08/18 02:04:33;;;;;;;3.90;3.80;;;;;;;;;;4970052;28;20584;-79
2022/08/18 02:07:00;;;;;;;4.17;3.87;;;;;;;;;;4970909;28;20457;-80
2022/08/18 02:09:26;;;;;;;4.30;4.03;;;;;;;;;;4970516;28;20489;-84
2022/08/18 02:11:52;;;;;;;4.60;4.40;;;;;;;;;;4970135;28;20442;-80
2022/08/18 02:14:19;;;;;;;7.23;4.10;;;;;;;;;;4970377;28;20441;-78
2022/08/18 02:16:44;;;;;;;3.50;3.40;;;;;;;;;;4971224;28;20273;-77
2022/08/18 02:19:11;;;;;;;3.93;3.70;;;;;;;;;;4970800;28;20540;-82
2022/08/18 02:21:37;;;;;;;5.97;4.57;;;;;;;;;;4969948;28;20438;-81
2022/08/18 02:24:04;;;;;;;4.53;4.20;;;;;;;;;;4970618;28;20434;-79
2022/08/18 02:26:30;;;;;;;6.70;4.47;;;;;;;;;;4970862;28;20457;-82
2022/08/18 02:28:56;;;;;;;6.17;4.10;;;;;;;;;;4970234;28;20525;-84
2022/08/18 02:31:23;;;;;;;4.83;4.43;;;;;;;;;;4970722;28;20433;-80
2022/08/18 02:33:49;;;;;;;5.00;4.33;;;;;;;;;;4969776;28;20437;-82
2022/08/18 02:36:15;;;;;;;4.50;4.20;;;;;;;;;;4970858;28;20937;-79
2022/08/18 02:38:41;;;;;;;4.87;4.50;;;;;;;;;;4970167;28;20442;-77
2022/08/18 02:41:09;;;;;;;7.73;5.03;;;;;;;;;;4974109;28;20426;-82
2022/08/18 02:43:35;;;;;;;6.37;4.17;;;;;;;;;;4974203;28;20476;-78
2022/08/18 02:46:02;;;;;;;8.60;4.40;;;;;;;;;;4973862;28;20430;-84
2022/08/18 02:48:34;;;;;;;21.20;4.80;;;;;;;;;;4973733;28;20531;-79
2022/08/18 02:51:08;;;;;;;4.83;4.60;;;;;;;;;;4974315;28;20438;-78
2022/08/18 02:53:34;;;;;;;4.27;4.00;;;;;;;;;;4974244;28;20440;-84
2022/08/18 02:56:23;;;;;;;4.00;3.90;;;;;;;;;;4973348;28;20850;-83
2022/08/18 02:58:51;;;;;;;4.57;4.27;;;;;;;;;;4974396;28;20488;-85
2022/08/18 03:01:17;;;;;;;3.97;3.67;;;;;;;;;;4974462;28;20457;-79
2022/08/18 03:03:43;;;;;;;3.73;3.43;;;;;;;;;;4973719;28;20517;-79
2022/08/18 03:06:09;;;;;;;3.60;3.37;;;;;;;;;;4974313;28;20520;-83
2022/08/18 03:08:35;;;;;;;4.03;3.63;;;;;;;;;;4974327;28;20536;-81
2022/08/18 03:11:01;;;;;;;4.97;4.40;;;;;;;;;;4973909;28;20426;-80
2022/08/18 03:13:28;;;;;;;3.50;3.30;;;;;;;;;;4973212;28;20568;-78
2022/08/18 03:15:54;;;;;;;4.10;3.90;;;;;;;;;;4973946;28;20190;-83
2022/08/18 03:18:21;;;;;;;4.13;3.93;;;;;;;;;;4972938;28;20480;-84
2022/08/18 03:20:47;;;;;;;4.50;4.20;;;;;;;;;;4973048;28;20425;-82
2022/08/18 03:23:13;;;;;;;4.90;4.70;;;;;;;;;;4972201;28;20454;-84
2022/08/18 03:25:43;;;;;;;3.40;3.30;;;;;;;;;;4973432;28;20245;-79
2022/08/18 03:28:09;;;;;;;8.50;4.37;;;;;;;;;;4973562;28;20485;-82
2022/08/18 03:30:35;;;;;;;7.10;3.17;;;;;;;;;;4973073;28;20518;-80
2022/08/18 03:33:01;;;;;;;3.43;3.23;;;;;;;;;;4973003;28;20448;-77
2022/08/18 03:35:27;;;;;;;3.43;3.13;;;;;;;;;;4972368;28;20438;-78
2022/08/18 03:37:54;;;;;;;4.07;3.87;;;;;;;;;;4973749;28;20476;-81
2022/08/18 03:40:20;;;;;;;9.00;3.90;;;;;;;;;;4974145;28;20593;-79
2022/08/18 03:42:46;;;;;;;3.73;3.63;;;;;;;;;;4972812;28;20441;-80
2022/08/18 03:45:12;;;;;;;3.63;3.30;;;;;;;;;;4972821;28;20430;-84
2022/08/18 03:47:39;;;;;;;4.30;3.70;;;;;;;;;;4973228;28;20519;-79
2022/08/18 03:50:05;;;;;;;3.83;3.63;;;;;;;;;;4973416;28;20590;-79
2022/08/18 03:52:31;;;;;;;2.50;2.40;;;;;;;;;;4970484;28;20429;-83
2022/08/18 03:54:58;;;;;;;5.30;3.00;;;;;;;;;;4970608;28;21005;-81
2022/08/18 03:57:25;;;;;;;3.87;3.70;;;;;;;;;;4970538;28;20580;-83
2022/08/18 03:59:53;;;;;;;5.70;2.97;;;;;;;;;;4972408;28;21010;-84
2022/08/18 04:02:19;;;;;;;3.80;3.50;;;;;;;;;;4972137;28;20537;-79
2022/08/18 04:04:45;;;;;;;2.50;2.50;;;;;;;;;;4971529;28;20814;-79
2022/08/18 04:07:16;;;;;;;4.00;3.23;;;;;;;;;;4972233;28;20907;-83
2022/08/18 04:09:42;;;;;;;2.97;2.73;;;;;;;;;;4972388;28;20442;-85
2022/08/18 04:12:10;;;;;;;5.60;2.57;;;;;;;;;;4972089;28;20538;-82
2022/08/18 04:14:37;;;;;;;3.23;3.23;;;;;;;;;;4971552;28;20460;-83
2022/08/18 04:17:04;;;;;;;6.73;2.83;;;;;;;;;;4986581;28;20434;-79
2022/08/18 04:19:33;;;;;;;3.43;2.93;;;;;;;;;;4971864;28;21235;-85
2022/08/18 04:21:59;;;;;;;2.30;2.30;;;;;;;;;;4971019;28;20489;-82
2022/08/18 04:24:27;;;;;;;3.37;3.13;;;;;;;;;;4970651;28;20442;-78
2022/08/18 04:26:53;;;;;;;3.53;3.33;;;;;;;;;;4970823;28;20438;-81
2022/08/18 04:29:20;;;;;;;3.07;2.87;;;;;;;;;;4971156;28;20492;-77
2022/08/18 04:31:47;;;;;;;3.20;2.97;;;;;;;;;;4972259;28;20414;-78
2022/08/18 04:34:14;;;;;;;3.33;3.13;;;;;;;;;;4970790;28;20520;-77
2022/08/18 04:36:40;;;;;;;2.83;2.60;;;;;;;;;;4971594;28;20434;-81
2022/08/18 04:39:08;;;;;;;2.70;2.60;;;;;;;;;;4971715;28;20442;-83
2022/08/18 04:41:34;;;;;;;3.27;2.83;;;;;;;;;;4971531;28;21072;-82
2022/08/18 04:44:03;;;;;;;3.37;3.10;;;;;;;;;;4970512;28;20457;-80
2022/08/18 04:46:29;;;;;;;3.47;3.13;;;;;;;;;;4971288;28;20433;-78
2022/08/18 04:48:58;;;;;;;3.50;3.20;;;;;;;;;;4971045;28;20516;-77
2022/08/18 04:51:25;;;;;;;4.30;3.30;;;;;;;;;;4972030;28;20434;-78
2022/08/18 04:53:51;;;;;;;3.50;3.40;;;;;;;;;;4971181;28;20937;-81
2022/08/18 04:56:27;;;;;;;3.50;2.70;;;;;;;;;;4970913;28;20481;-81
2022/08/18 04:58:53;;;;;;;3.47;3.37;;;;;;;;;;4970834;28;20442;-81
2022/08/18 05:01:20;;;;;;;3.30;3.20;;;;;;;;;;4969584;28;20465;-80
2022/08/18 05:03:47;;;;;;;3.40;3.20;;;;;;;;;;4970466;28;21339;-80
2022/08/18 05:06:13;;;;;;;4.17;3.73;;;;;;;;;;4969346;28;20802;-81
2022/08/18 05:08:39;;;;;;;3.47;3.33;;;;;;;;;;4970259;28;20994;-81
2022/08/18 05:11:05;;;;;;;3.00;3.00;;;;;;;;;;4969818;28;20816;-79
2022/08/18 05:13:31;;;;;;;4.90;3.30;;;;;;;;;;4968841;28;20446;-80
2022/08/18 05:16:02;;;;;;;3.63;3.43;;;;;;;;;;4970461;28;20425;-78
2022/08/18 05:18:28;;;;;;;2.80;2.70;;;;;;;;;;4971419;28;20585;-77
2022/08/18 05:20:55;;;;;;;4.10;3.67;;;;;;;;;;4969454;28;20930;-78
2022/08/18 05:23:22;;;;;;;3.60;3.50;;;;;;;;;;4969652;28;20546;-79
2022/08/18 05:25:48;;;;;;;2.90;2.87;;;;;;;;;;4970438;28;20816;-77
2022/08/18 05:28:15;;;;;;;10.73;3.60;;;;;;;;;;4970937;28;20485;-78
2022/08/18 05:30:41;;;;;;;3.70;3.50;;;;;;;;;;4971601;28;20517;-78
2022/08/18 05:33:11;;;;;;;6.03;3.23;;;;;;;;;;4971913;28;20434;-82
2022/08/18 05:35:40;;;;;;;5.10;3.93;;;;;;;;;;4971141;28;20919;-78
2022/08/18 05:38:14;;;;;;;3.40;3.30;;;;;;;;;;4971812;28;20461;-79
2022/08/18 05:40:40;;;;;;;3.63;3.03;;;;;;;;;;4971621;28;20429;-79
2022/08/18 05:43:07;;;;;;;2.60;2.60;;;;;;;;;;4970848;28;20861;-79
2022/08/18 05:45:34;;;;;;;3.40;3.10;;;;;;;;;;4970761;28;20440;-83
2022/08/18 05:48:00;;;;;;;3.40;3.30;;;;;;;;;;4971106;28;20528;-79
2022/08/18 05:50:27;;;;;;;4.00;3.70;;;;;;;;;;4972263;28;20442;-79
2022/08/18 05:53:00;;;;;;;3.03;2.93;;;;;;;;;;4971302;28;20425;-81
2022/08/18 05:58:20;;;;;;;3.67;3.17;;;;;;;;;;4970684;28;20425;-71
2022/08/18 06:00:52;;;;;;;3.03;2.93;;;;;;;;;;4970804;28;20445;-70
2022/08/18 06:03:24;;;;;;;3.60;3.50;;;;;;;;;;4970220;28;20521;-71
2022/08/18 06:06:01;;;;;;;3.40;3.30;;;;;;;;;;4969994;28;20438;-71
2022/08/18 06:08:30;;;;;;;3.50;3.40;;;;;;;;;;4971548;28;20469;-72
2022/08/18 06:10:56;;;;;;;3.30;3.20;;;;;;;;;;4971392;28;20465;-72
2022/08/18 06:13:22;;;;;;;4.27;3.73;;;;;;;;;;4970132;28;20430;-72
2022/08/18 06:15:51;;;;;;;9.57;3.57;;;;;;;;;;4969624;28;20544;-72
2022/08/18 06:18:26;;;;;;;3.93;3.73;;;;;;;;;;4970878;28;20841;-72
2022/08/18 06:21:10;;;;;;;4.03;3.73;;;;;;;;;;4970055;28;20441;-71
2022/08/18 06:23:39;;;;;;;3.33;3.23;;;;;;;;;;4969849;28;20493;-72
2022/08/18 06:26:12;;;;;;;4.03;3.93;;;;;;;;;;4970696;28;20453;-71
2022/08/18 06:28:53;;;;;;;3.67;3.60;;;;;;;;;;4969397;28;20477;-71
2022/08/18 06:31:22;;;;;;;3.80;3.63;;;;;;;;;;4969584;28;20445;-69
2022/08/18 06:33:55;;;;;;;3.53;3.40;;;;;;;;;;4970031;28;20445;-71
2022/08/18 06:36:23;;;;;;;3.80;3.50;;;;;;;;;;4970245;28;20930;-70
2022/08/18 06:39:01;;;;;;;4.20;3.87;;;;;;;;;;4970625;28;20461;-70
2022/08/18 06:41:37;;;;;;;4.27;4.17;;;;;;;;;;4970187;28;20425;-70
2022/08/18 06:44:03;;;;;;;9.97;4.40;;;;;;;;;;4969657;28;20437;-70
2022/08/18 06:46:32;;;;;;;17.13;4.73;;;;;;;;;;4970717;28;20437;-71
2022/08/18 06:49:02;;;;;;;3.97;3.80;;;;;;;;;;4969531;28;20485;-70
2022/08/18 06:51:28;;;;;;;4.03;3.93;;;;;;;;;;4969411;28;20461;-70
2022/08/18 06:53:56;;;;;;;3.63;3.40;;;;;;;;;;4970254;28;20434;-71
2022/08/18 06:56:36;;;;;;;4.32;4.00;;;;;;;;;;4968236;28;20438;-68
2022/08/18 06:59:20;;;;;;;4.30;3.93;;;;;;;;;;4971084;28;20194;-71
2022/08/18 07:01:48;;;;;;;3.93;3.50;;;;;;;;;;4970197;28;20446;-71
2022/08/18 07:04:46;;;;;;;3.43;3.33;;;;;;;;;;4971235;28;20430;-71
2022/08/18 07:07:30;;;;;;;4.40;4.20;;;;;;;;;;4968586;28;20477;-71
2022/08/18 07:09:56;;;;;;;4.17;3.97;;;;;;;;;;4970589;28;20516;-72
2022/08/18 07:12:24;;;;;;;2.97;2.97;;;;;;;;;;4969167;28;20438;-71
2022/08/18 07:14:52;;;;;;;3.97;3.80;;;;;;;;;;4970284;28;20452;-71
2022/08/18 07:17:23;;;;;;;4.33;4.00;;;;;;;;;;4969418;28;20442;-70
2022/08/18 07:19:56;;;;;;;4.70;4.30;;;;;;;;;;4968246;28;20532;-71
2022/08/18 07:22:22;;;;;;;4.13;3.60;;;;;;;;;;4969363;28;20800;-71
2022/08/18 07:24:49;;;;;;;4.50;4.10;;;;;;;;;;4970473;28;20429;-71
2022/08/18 07:27:17;;;;;;;8.73;3.97;;;;;;;;;;4970586;28;20449;-70
2022/08/18 07:29:58;;;;;;;4.10;3.90;;;;;;;;;;4973130;28;20488;-71
2022/08/18 07:32:28;;;;;;;3.50;3.20;;;;;;;;;;4973275;28;20461;-70
2022/08/18 07:34:58;;;;;;;4.00;3.90;;;;;;;;;;4972830;28;20437;-71
2022/08/18 07:37:27;;;;;;;4.13;2.90;;;;;;;;;;4973261;28;20433;-71
2022/08/18 07:40:00;;;;;;;3.40;3.40;;;;;;;;;;4972273;28;20927;-71
2022/08/18 07:42:43;;;;;;;3.83;3.30;;;;;;;;;;4972807;28;20437;-70
2022/08/18 07:45:16;;;;;;;4.60;3.63;;;;;;;;;;4972774;28;20484;-71
2022/08/18 07:47:54;;;;;;;3.57;3.40;;;;;;;;;;4972783;28;20437;-71
2022/08/18 07:50:21;;;;;;;3.23;3.07;;;;;;;;;;4973358;28;20426;-71
2022/08/18 07:52:50;;;;;;;3.40;3.30;;;;;;;;;;4973571;28;20449;-71
2022/08/18 07:55:19;;;;;;;3.87;3.73;;;;;;;;;;4973074;28;20469;-71
2022/08/18 07:57:51;;;;;;;4.07;3.90;;;;;;;;;;4972169;28;20458;-71
2022/08/18 08:00:20;;;;;;;3.73;3.43;;;;;;;;;;4972381;28;20444;-71
2022/08/18 08:03:04;;;;;;;3.90;3.80;;;;;;;;;;4972645;28;20430;-71
2022/08/18 08:05:42;;;;;;;3.13;3.03;;;;;;;;;;4971461;28;20934;-70
2022/08/18 08:08:14;;;;;;;4.33;4.23;;;;;;;;;;4973148;28;20568;-71
2022/08/18 08:10:50;;;;;;;4.00;3.90;;;;;;;;;;4973214;28;20950;-71
2022/08/18 08:13:16;;;;;;;4.13;3.83;;;;;;;;;;4972903;28;20500;-72
2022/08/18 08:15:48;;;;;;;4.73;4.33;;;;;;;;;;4972694;28;20488;-71
2022/08/18 08:18:17;;;;;;;4.87;4.30;;;;;;;;;;4973031;28;20480;-71
2022/08/18 08:20:59;;;;;;;3.93;3.87;;;;;;;;;;4971810;28;20513;-71
2022/08/18 08:23:30;;;;;;;4.60;4.30;;;;;;;;;;4970844;28;20433;-71
2022/08/18 08:26:15;;;;;;;4.97;4.80;;;;;;;;;;4972438;28;20461;-71
2022/08/18 08:28:48;;;;;;;4.33;4.20;;;;;;;;;;4972324;28;20497;-71
2022/08/18 08:31:26;;;;;;;3.77;3.67;;;;;;;;;;4973157;28;20425;-70
2022/08/18 08:33:58;;;;;;;7.30;4.00;;;;;;;;;;4971986;28;20577;-77
2022/08/18 08:36:27;;;;;;;4.50;4.10;;;;;;;;;;4974798;28;20835;-76
2022/08/18 08:38:56;;;;;;;4.43;4.13;;;;;;;;;;4970550;28;20488;-79
2022/08/18 08:41:28;;;;;;;5.00;4.40;;;;;;;;;;4969330;28;20469;-77
2022/08/18 08:44:12;;;;;;;4.57;4.30;;;;;;;;;;4972931;28;22671;-80
2022/08/18 08:47:05;;;;;;;5.60;5.10;;;;;;;;;;4970548;28;20950;-81
2022/08/18 08:49:34;;;;;;;4.70;4.47;;;;;;;;;;4968768;28;20513;-77
2022/08/18 08:52:04;;;;;;;5.77;5.43;;;;;;;;;;4970951;28;20492;-77
2022/08/18 08:54:34;;;;;;;4.80;4.60;;;;;;;;;;4972457;28;20481;-79
2022/08/18 08:57:01;;;;;;;4.63;4.27;;;;;;;;;;4971153;28;20442;-77
2022/08/18 08:59:27;;;;;;;6.57;5.07;;;;;;;;;;4971308;28;20954;-79
2022/08/18 09:01:59;;;;;;;4.53;4.33;;;;;;;;;;4969821;28;20999;-81
2022/08/18 09:04:48;;;;;;;3.10;3.00;;;;;;;;;;4971254;28;20450;-83
2022/08/18 09:07:20;;;;;;;3.20;3.00;;;;;;;;;;4970419;28;20819;-84
2022/08/18 09:09:53;;;;;;;3.47;3.37;;;;;;;;;;4971100;28;20497;-84
2022/08/18 09:12:19;;;;;;;4.00;3.90;;;;;;;;;;4971438;28;20434;-78
2022/08/18 09:15:13;;;;;;;6.93;5.07;;;;;;;;;;4970908;28;20430;-79
2022/08/18 09:17:51;;;;;;;4.40;4.10;;;;;;;;;;4971949;28;20470;-83
2022/08/18 09:20:36;;;;;;;5.10;4.80;;;;;;;;;;4971849;28;20410;-76
2022/08/18 09:23:02;;;;;;;6.70;6.37;;;;;;;;;;4971099;28;20441;-83
2022/08/18 09:25:55;;;;;;;3.13;2.70;;;;;;;;;;4972158;28;20469;-85
2022/08/18 09:28:39;;;;;;;4.90;4.60;;;;;;;;;;4968679;28;20485;-80
2022/08/18 09:31:05;;;;;;;5.23;4.87;;;;;;;;;;4970651;28;20436;-81
2022/08/18 09:33:34;;;;;;;4.70;4.40;;;;;;;;;;4971921;28;20426;-83
2022/08/18 09:36:19;;;;;;;5.40;4.87;;;;;;;;;;4968110;28;20190;-82
2022/08/18 09:42:07;;;;;;;5.43;5.00;;;;;;;;;;4969786;28;20449;-81
2022/08/18 09:44:45;;;;;;;5.27;5.07;;;;;;;;;;4969142;28;20430;-79
2022/08/18 09:47:23;;;;;;;3.77;3.67;;;;;;;;;;4971011;28;20450;-79
2022/08/18 09:49:49;;;;;;;5.27;4.97;;;;;;;;;;4971718;28;20488;-82
2022/08/18 09:52:21;;;;;;;5.63;5.13;;;;;;;;;;4970869;28;20434;-77
2022/08/18 09:54:59;;;;;;;5.43;5.17;;;;;;;;;;4970304;28;20478;-83
2022/08/18 09:57:35;;;;;;;4.97;4.70;;;;;;;;;;4970388;28;20445;-80
2022/08/18 10:00:07;;;;;;;5.40;5.07;;;;;;;;;;4970220;28;20430;-83
2022/08/18 10:02:36;;;;;;;4.77;4.40;;;;;;;;;;4971694;28;20426;-83
2022/08/18 10:05:18;;;;;;;5.60;5.40;;;;;;;;;;4970591;28;21070;-76
2022/08/18 10:08:00;;;;;;;6.53;5.07;;;;;;;;;;4970969;28;20589;-86
2022/08/18 10:10:48;;;;;;;6.17;5.57;;;;;;;;;;4968285;28;20464;-84
2022/08/18 10:13:17;;;;;;;5.33;5.00;;;;;;;;;;4968935;28;20449;-76
2022/08/18 10:16:02;;;;;;;5.73;5.33;;;;;;;;;;4968447;28;20541;-77
2022/08/18 10:18:33;;;;;;;5.90;5.50;;;;;;;;;;4969299;28;20437;-79
2022/08/18 10:21:07;;;;;;;4.90;4.60;;;;;;;;;;4970031;28;20547;-76
2022/08/18 10:23:54;;;;;;;4.93;4.73;;;;;;;;;;4968330;28;20437;-78
2022/08/18 10:26:37;;;;;;;3.43;3.30;;;;;;;;;;4969342;28;20803;-76
2022/08/18 10:29:05;;;;;;;6.57;5.40;;;;;;;;;;4968930;28;20488;-78
2022/08/18 10:31:32;;;;;;;3.83;3.60;;;;;;;;;;4969306;28;20434;-80
2022/08/18 10:33:57;;;;;;;3.90;3.70;;;;;;;;;;4970179;28;20508;-80
2022/08/18 10:36:32;;;;;;;4.07;3.87;;;;;;;;;;4969208;28;20430;-79
2022/08/18 10:38:58;;;;;;;3.77;3.57;;;;;;;;;;4967305;28;20441;-81
2022/08/18 10:41:29;;;;;;;4.37;3.97;;;;;;;;;;4968959;28;20437;-79
2022/08/18 10:43:56;;;;;;;7.63;3.53;;;;;;;;;;4968727;28;20438;-82
2022/08/18 10:46:23;;;;;;;3.50;3.00;;;;;;;;;;4969521;28;20434;-79
2022/08/18 10:49:24;;;;;;;3.93;3.83;;;;;;;;;;4968811;28;20503;-79
2022/08/18 10:51:59;;;;;;;4.10;4.00;;;;;;;;;;4986546;28;21117;-78
2022/08/18 10:54:40;;;;;;;4.10;4.00;;;;;;;;;;4970796;28;20545;-80
2022/08/18 10:57:14;;;;;;;4.70;4.40;;;;;;;;;;4969517;28;20944;-79
2022/08/18 10:59:47;;;;;;;4.37;4.10;;;;;;;;;;4969375;28;20521;-82
2022/08/18 11:02:31;;;;;;;4.70;4.40;;;;;;;;;;4972695;28;20584;-80
2022/08/18 11:04:58;;;;;;;3.47;3.37;;;;;;;;;;4972800;28;20874;-78
2022/08/18 11:07:25;;;;;;;4.20;4.10;;;;;;;;;;4972979;28;20438;-79
2022/08/18 11:09:53;;;;;;;4.50;4.10;;;;;;;;;;4974570;28;20973;-81
2022/08/18 11:12:38;;;;;;;4.70;4.60;;;;;;;;;;4971515;28;20488;-82
2022/08/18 11:15:15;;;;;;;5.20;5.00;;;;;;;;;;4973974;28;20460;-81
2022/08/18 11:17:54;;;;;;;4.30;4.20;;;;;;;;;;4973881;28;20446;-82
2022/08/18 11:20:21;;;;;;;5.30;4.90;;;;;;;;;;4973066;28;20934;-81
2022/08/18 11:22:55;;;;;;;4.77;4.47;;;;;;;;;;4973244;28;20525;-81
2022/08/18 11:25:30;;;;;;;5.20;5.00;;;;;;;;;;4973200;28;20881;-79
2022/08/18 11:27:56;;;;;;;4.20;4.10;;;;;;;;;;4973911;28;20973;-78
2022/08/18 11:30:25;;;;;;;4.90;4.50;;;;;;;;;;4973398;28;20469;-80
2022/08/18 11:32:51;;;;;;;4.00;3.90;;;;;;;;;;4973031;28;20437;-83
2022/08/18 11:35:23;;;;;;;5.13;4.63;;;;;;;;;;4973771;28;20848;-81
2022/08/18 11:37:55;;;;;;;4.53;4.23;;;;;;;;;;4973569;28;20437;-81
2022/08/18 11:40:44;;;;;;;5.07;4.77;;;;;;;;;;4972816;28;20433;-83
2022/08/18 11:43:39;;;;;;;4.50;4.30;;;;;;;;;;4971740;28;20484;-82
2022/08/18 11:46:24;;;;;;;2.33;2.33;;;;;;;;;;4973216;28;20531;-81
2022/08/18 11:48:51;;;;;;;3.20;3.10;;;;;;;;;;4973742;28;20540;-82
2022/08/18 11:51:17;;;;;;;3.13;3.03;;;;;;;;;;4973578;28;20454;-83
2022/08/18 11:53:58;;;;;;;4.13;3.60;;;;;;;;;;4974537;28;20450;-82
2022/08/18 11:56:25;;;;;;;3.23;3.10;;;;;;;;;;4972418;28;20563;-83
2022/08/18 11:58:54;;;;;;;3.13;2.77;;;;;;;;;;4971831;28;20437;-82
2022/08/18 12:01:32;;;;;;;3.47;3.33;;;;;;;;;;4973095;28;20434;-82
2022/08/18 12:04:13;;;;;;;3.50;3.30;;;;;;;;;;4972743;28;20879;-79
2022/08/18 12:06:58;;;;;;;3.30;3.30;;;;;;;;;;4972914;28;20923;-83
2022/08/18 12:09:39;;;;;;;3.53;3.43;;;;;;;;;;4972123;28;20986;-76
2022/08/18 12:12:26;;;;;;;3.80;3.60;;;;;;;;;;4972062;28;20434;-82
2022/08/18 12:14:51;;;;;;;3.10;2.90;;;;;;;;;;4971833;28;20434;-79
2022/08/18 12:17:18;;;;;;;3.60;3.50;;;;;;;;;;4970239;28;20496;-77
2022/08/18 12:19:44;;;;;;;3.53;3.47;;;;;;;;;;4972500;28;20183;-75
2022/08/18 12:22:15;;;;;;;3.00;3.00;;;;;;;;;;4973831;28;20933;-81
2022/08/18 12:24:41;;;;;;;7.33;4.27;;;;;;;;;;4972151;28;20434;-80
2022/08/18 12:27:08;;;;;;;3.73;3.63;;;;;;;;;;4971304;28;20981;-80
2022/08/18 12:29:34;;;;;;;4.70;4.33;;;;;;;;;;4969491;28;20321;-79
2022/08/18 12:32:00;;;;;;;6.43;4.43;;;;;;;;;;4971964;28;20526;-83
2022/08/18 12:34:26;;;;;;;9.20;5.10;;;;;;;;;;4972530;28;20869;-79
2022/08/18 12:36:53;;;;;;;5.27;5.10;;;;;;;;;;4973214;28;20197;-79
2022/08/18 12:39:19;;;;;;;4.73;4.53;;;;;;;;;;4972387;28;20441;-82
2022/08/18 12:41:46;;;;;;;4.90;4.70;;;;;;;;;;4969819;28;20433;-82
2022/08/18 12:44:12;;;;;;;4.67;4.50;;;;;;;;;;4971494;28;20492;-80
2022/08/18 12:46:38;;;;;;;5.10;5.00;;;;;;;;;;4973238;28;20450;-81
2022/08/18 12:49:05;;;;;;;5.03;4.83;;;;;;;;;;4972167;28;20587;-77
2022/08/18 12:51:31;;;;;;;5.77;5.47;;;;;;;;;;4972419;28;20972;-80
2022/08/18 12:53:57;;;;;;;4.67;4.47;;;;;;;;;;4970782;28;20438;-79
2022/08/18 12:56:25;;;;;;;5.37;5.17;;;;;;;;;;4971826;28;20442;-81
2022/08/18 12:58:51;;;;;;;4.40;4.20;;;;;;;;;;4971673;28;20968;-81
2022/08/18 13:01:18;;;;;;;5.67;5.47;;;;;;;;;;4969663;28;20446;-79
2022/08/18 13:03:45;;;;;;;5.00;4.63;;;;;;;;;;4970301;28;20955;-81
2022/08/18 13:06:11;;;;;;;6.07;5.70;;;;;;;;;;4971197;28;20811;-80
2022/08/18 13:08:37;;;;;;;4.30;4.20;;;;;;;;;;4971489;28;20477;-79
2022/08/18 13:11:09;;;;;;;5.47;5.27;;;;;;;;;;4972541;28;20453;-79
2022/08/18 13:13:35;;;;;;;5.60;5.30;;;;;;;;;;4972147;28;20472;-77
2022/08/18 13:16:01;;;;;;;4.97;4.77;;;;;;;;;;4972089;28;20525;-79
2022/08/18 13:18:27;;;;;;;5.57;5.27;;;;;;;;;;4971684;28;20438;-79
2022/08/18 13:20:54;;;;;;;5.70;5.30;;;;;;;;;;4971488;28;20436;-81
2022/08/18 13:23:20;;;;;;;5.73;5.53;;;;;;;;;;4971753;28;20513;-79
2022/08/18 13:25:46;;;;;;;4.37;4.23;;;;;;;;;;4971053;28;20517;-80
2022/08/18 13:28:13;;;;;;;5.43;5.23;;;;;;;;;;4972756;28;20481;-80
2022/08/18 13:30:40;;;;;;;5.43;5.23;;;;;;;;;;4971062;28;20434;-81
2022/08/18 13:33:06;;;;;;;5.53;5.27;;;;;;;;;;4971535;28;20465;-79
2022/08/18 13:35:32;;;;;;;5.80;5.50;;;;;;;;;;4971138;28;20438;-79
2022/08/18 13:37:58;;;;;;;5.87;5.40;;;;;;;;;;4972293;28;20437;-81
2022/08/18 13:40:24;;;;;;;5.30;5.10;;;;;;;;;;4970989;28;20965;-80
2022/08/18 13:42:50;;;;;;;6.30;6.00;;;;;;;;;;4970712;28;20497;-80
2022/08/18 13:45:17;;;;;;;6.60;6.30;;;;;;;;;;4971171;28;20442;-80
2022/08/18 13:47:43;;;;;;;6.57;6.07;;;;;;;;;;4971163;28;20191;-81
2022/08/18 13:50:10;;;;;;;9.30;5.90;;;;;;;;;;4971168;28;20957;-78
2022/08/18 13:52:36;;;;;;;7.00;6.70;;;;;;;;;;4972491;28;20210;-81
2022/08/18 13:55:03;;;;;;;7.10;6.80;;;;;;;;;;4970570;28;20473;-72
2022/08/18 13:57:30;;;;;;;6.23;5.93;;;;;;;;;;4970352;28;20434;-79
2022/08/18 13:59:56;;;;;;;5.93;5.37;;;;;;;;;;4970926;28;20450;-83
2022/08/18 14:02:22;;;;;;;6.33;4.60;;;;;;;;;;4971322;28;20487;-75
2022/08/18 14:04:48;;;;;;;6.27;6.00;;;;;;;;;;4970865;28;20434;-75
2022/08/18 14:07:16;;;;;;;6.33;6.03;;;;;;;;;;4971537;28;20580;-79
2022/08/18 14:09:42;;;;;;;7.90;7.37;;;;;;;;;;4971110;28;20487;-78
2022/08/18 14:12:28;;;;;;;6.53;6.10;;;;;;;;;;4970424;28;20440;-80
2022/08/18 14:14:55;;;;;;;6.23;5.80;;;;;;;;;;4970390;28;20939;-77
2022/08/18 14:17:22;;;;;;;7.00;6.43;;;;;;;;;;4969053;28;20438;-74
2022/08/18 14:28:02;;;;;;;7.50;7.00;;;;;;;;;;4969698;28;20492;-81
2022/08/18 14:30:28;;;;;;;8.43;7.83;;;;;;;;;;4969847;28;20478;-76
2022/08/18 14:32:54;;;;;;;7.73;7.13;;;;;;;;;;4969930;28;20418;-76
2022/08/18 14:35:21;;;;;;;8.93;8.17;;;;;;;;;;4969057;28;20448;-84
2022/08/18 14:37:47;;;;;;;8.07;7.50;;;;;;;;;;4970504;28;20436;-78
2022/08/18 14:40:13;;;;;;;8.30;7.90;;;;;;;;;;4971125;28;20437;-76
2022/08/18 14:42:41;;;;;;;8.00;7.30;;;;;;;;;;4969148;28;20438;-83
2022/08/18 14:45:07;;;;;;;8.20;7.70;;;;;;;;;;4970241;28;20923;-80
2022/08/18 14:47:33;;;;;;;10.63;9.53;;;;;;;;;;4969104;28;20469;-76
2022/08/18 14:50:00;;;;;;;9.27;8.37;;;;;;;;;;4970079;28;20520;-77
2022/08/18 14:52:26;;;;;;;8.93;8.20;;;;;;;;;;4968572;28;20178;-76
2022/08/18 14:54:52;;;;;;;10.30;9.60;;;;;;;;;;4968041;28;20513;-77
2022/08/18 14:57:18;;;;;;;10.40;9.60;;;;;;;;;;4968722;28;20433;-76
2022/08/18 14:59:45;;;;;;;11.23;10.17;;;;;;;;;;4969826;28;20438;-79
2022/08/18 15:02:11;;;;;;;9.63;9.00;;;;;;;;;;4969397;28;20449;-80
2022/08/18 15:04:38;;;;;;;9.70;9.10;;;;;;;;;;4968856;28;20433;-79
2022/08/18 15:07:04;;;;;;;10.70;9.60;;;;;;;;;;4969913;28;20445;-78
2022/08/18 15:09:30;;;;;;;7.23;6.83;;;;;;;;;;4969951;28;20489;-79
2022/08/18 15:11:57;;;;;;;9.50;8.60;;;;;;;;;;4969748;28;20427;-85
2022/08/18 15:14:26;;;;;;;10.30;9.40;;;;;;;;;;4970492;28;20441;-83
2022/08/18 15:16:52;;;;;;;10.80;9.37;;;;;;;;;;4966831;28;20440;-81
2022/08/18 15:19:20;;;;;;;9.47;8.87;;;;;;;;;;4969534;28;20440;-73
2022/08/18 15:27:15;;;;;;;10.20;9.50;;;;;;;;;;4969909;28;20484;-81
2022/08/18 15:29:41;;;;;;;9.70;9.00;;;;;;;;;;4969707;28;20572;-77